createdAt,value
2022-12-18T00:00:24.006Z,-1.25
2022-12-18T00:05:28.776Z,-1.20
2022-12-18T00:10:30.814Z,-1.26
2022-12-18T00:15:35.546Z,-1.28
2022-12-18T00:20:39.294Z,-1.40
2022-12-18T00:25:41.274Z,-1.31
2022-12-18T00:30:43.269Z,-1.28
2022-12-18T00:35:45.376Z,-1.26
2022-12-18T00:40:47.411Z,-1.27
2022-12-18T00:45:49.402Z,-1.28
2022-12-18T00:50:52.380Z,-1.26
2022-12-18T00:55:54.338Z,-1.25
2022-12-18T01:00:56.363Z,-1.29
2022-12-18T01:05:58.555Z,-1.39
2022-12-18T01:11:00.736Z,-1.47
2022-12-18T01:16:02.993Z,-1.37
2022-12-18T01:21:09.802Z,-1.34
2022-12-18T01:26:15.917Z,-1.45
2022-12-18T01:31:30.309Z,-1.55
2022-12-18T01:36:38.322Z,-1.61
2022-12-18T01:41:59.461Z,-1.65
2022-12-18T01:47:01.582Z,-1.65
2022-12-18T01:52:03.641Z,-1.75
2022-12-18T01:57:05.686Z,-1.78
2022-12-18T02:02:08.793Z,-1.74
2022-12-18T02:07:17.039Z,-1.73
2022-12-18T02:12:31.907Z,-1.67
2022-12-18T02:17:43.085Z,-1.63
2022-12-18T02:23:05.962Z,-1.61
2022-12-18T02:28:13.896Z,-1.63
2022-12-18T02:33:16.921Z,-1.66
2022-12-18T02:38:19.371Z,-1.66
2022-12-18T02:43:24.239Z,-1.68
2022-12-18T02:48:33.803Z,-1.63
2022-12-18T02:53:46.685Z,-1.61
2022-12-18T02:59:01.295Z,-1.68
2022-12-18T03:04:37.787Z,-1.79
2022-12-18T03:09:45.146Z,-1.85
2022-12-18T03:14:51.521Z,-1.93
2022-12-18T03:19:57.104Z,-1.84
2022-12-18T03:25:01.736Z,-1.87
2022-12-18T03:30:09.818Z,-1.89
2022-12-18T03:35:18.764Z,-1.88
2022-12-18T03:40:32.650Z,-2.02
2022-12-18T03:45:39.484Z,-1.92
2022-12-18T03:50:59.033Z,-1.98
2022-12-18T03:56:03.228Z,-1.89
2022-12-18T04:01:13.345Z,-1.91
2022-12-18T04:06:18.056Z,-2.08
2022-12-18T04:11:20.873Z,-2.04
2022-12-18T04:16:23.664Z,-2.07
2022-12-18T04:21:29.245Z,-2.09
2022-12-18T04:26:31.350Z,-2.01
2022-12-18T04:31:52.115Z,-2.00
2022-12-18T04:36:55.123Z,-2.03
2022-12-18T04:42:01.432Z,-2.04
2022-12-18T04:47:04.237Z,-2.04
2022-12-18T04:52:06.207Z,-2.07
2022-12-18T04:57:09.340Z,-2.13
2022-12-18T05:02:11.756Z,-2.18
2022-12-18T05:07:13.865Z,-2.20
2022-12-18T05:12:15.980Z,-2.23
2022-12-18T05:17:18.151Z,-2.22
2022-12-18T05:22:20.196Z,-2.22
2022-12-18T05:27:22.555Z,-2.22
2022-12-18T05:32:24.631Z,-2.20
2022-12-18T05:37:26.671Z,-2.22
2022-12-18T05:42:28.713Z,-2.39
2022-12-18T05:47:30.832Z,-2.30
2022-12-18T05:52:32.918Z,-2.34
2022-12-18T05:57:34.935Z,-2.34
2022-12-18T06:02:37.149Z,-2.40
2022-12-18T06:07:39.322Z,-2.53
2022-12-18T06:12:41.310Z,-2.56
2022-12-18T06:17:44.126Z,-2.39
2022-12-18T06:22:46.736Z,-2.41
2022-12-18T06:27:49.423Z,-2.31
2022-12-18T06:32:56.339Z,-2.29
2022-12-18T06:37:58.997Z,-2.22
2022-12-18T06:43:01.062Z,-2.15
2022-12-18T06:48:03.414Z,-2.22
2022-12-18T06:53:06.458Z,-2.10
2022-12-18T06:58:09.785Z,-2.10
2022-12-18T07:03:13.528Z,-2.03
2022-12-18T07:08:15.629Z,-2.03
2022-12-18T07:13:18.371Z,-2.01
2022-12-18T07:18:20.614Z,-2.06
2022-12-18T07:23:22.600Z,-2.13
2022-12-18T07:28:24.844Z,-1.95
2022-12-18T07:33:26.901Z,-1.87
2022-12-18T07:38:29.362Z,-1.83
2022-12-18T07:43:32.190Z,-1.86
2022-12-18T07:48:34.888Z,-1.83
2022-12-18T07:53:37.922Z,-1.75
2022-12-18T07:58:40.218Z,-1.69
2022-12-18T08:03:42.568Z,-1.61
2022-12-18T08:08:44.835Z,-1.55
2022-12-18T08:13:46.845Z,-1.55
2022-12-18T08:18:49.583Z,-1.73
2022-12-18T08:23:55.835Z,-1.57
2022-12-18T08:28:59.507Z,-1.60
2022-12-18T08:34:01.536Z,-1.63
2022-12-18T08:39:03.895Z,-1.53
2022-12-18T08:44:24.615Z,-1.46
2022-12-18T08:49:26.689Z,-1.39
2022-12-18T08:54:28.982Z,-1.38
2022-12-18T08:59:31.091Z,-1.38
2022-12-18T09:04:33.063Z,-1.40
2022-12-18T09:09:35.061Z,-1.37
2022-12-18T09:14:37.360Z,-1.38
2022-12-18T09:19:39.371Z,-1.28
2022-12-18T09:24:41.435Z,-1.21
2022-12-18T09:29:43.431Z,-1.17
2022-12-18T09:34:45.346Z,-1.17
2022-12-18T09:39:47.346Z,-1.14
2022-12-18T09:44:54.226Z,-1.08
2022-12-18T09:50:21.972Z,-1.00
2022-12-18T09:55:37.483Z,-1.01
2022-12-18T10:00:40.033Z,-1.11
2022-12-18T10:06:12.051Z,-1.08
2022-12-18T10:11:41.848Z,-1.06
2022-12-18T10:17:22.893Z,-1.11
2022-12-18T10:22:43.607Z,-1.15
2022-12-18T10:27:46.104Z,-1.24
2022-12-18T10:32:48.238Z,-1.17
2022-12-18T10:38:21.581Z,-1.03
2022-12-18T10:43:35.262Z,-1.21
2022-12-18T10:48:41.525Z,-1.26
2022-12-18T10:53:44.114Z,-1.38
2022-12-18T10:58:58.111Z,-1.35
2022-12-18T11:04:03.601Z,-1.45
2022-12-18T11:09:19.735Z,-1.46
2022-12-18T11:14:30.191Z,-1.50
2022-12-18T11:19:36.609Z,-1.55
2022-12-18T11:24:38.636Z,-1.52
2022-12-18T11:29:46.346Z,-1.51
2022-12-18T11:34:59.151Z,-1.44
2022-12-18T11:40:13.108Z,-1.48
2022-12-18T11:45:15.099Z,-1.63
2022-12-18T11:50:26.591Z,-1.56
2022-12-18T11:55:46.894Z,-1.48
2022-12-18T12:01:06.537Z,-1.50
2022-12-18T12:06:26.053Z,-1.46
2022-12-18T12:11:44.653Z,-1.59
2022-12-18T12:16:49.395Z,-1.60
2022-12-18T12:22:17.456Z,-1.60
2022-12-18T12:27:56.784Z,-1.58
2022-12-18T12:33:13.551Z,-1.61
2022-12-18T12:38:27.534Z,-1.53
2022-12-18T12:43:35.181Z,-1.60
2022-12-18T12:48:48.745Z,-1.57
2022-12-18T12:53:52.900Z,-1.66
2022-12-18T12:59:19.719Z,-1.57
2022-12-18T13:04:41.944Z,-1.62
2022-12-18T13:10:20.574Z,-1.61
2022-12-18T13:15:31.427Z,-1.74
2022-12-18T13:20:46.630Z,-1.89
2022-12-18T13:25:52.893Z,-1.86
2022-12-18T13:30:57.747Z,-1.82
2022-12-18T13:36:23.728Z,-1.70
2022-12-18T13:41:29.137Z,-1.76
2022-12-18T13:46:44.847Z,-1.71
2022-12-18T13:51:52.805Z,-1.73
2022-12-18T13:56:54.975Z,-1.78
2022-12-18T14:02:06.642Z,-1.68
2022-12-18T14:07:13.949Z,-1.68
2022-12-18T14:12:38.121Z,-1.92
2022-12-18T14:17:40.572Z,-1.89
2022-12-18T14:22:48.201Z,-1.78
2022-12-18T14:28:02.908Z,-1.80
2022-12-18T14:33:15.957Z,-1.84
2022-12-18T14:38:23.390Z,-1.89
2022-12-18T14:43:27.941Z,-1.89
2022-12-18T14:48:40.554Z,-1.95
2022-12-18T14:53:52.095Z,-2.01
2022-12-18T14:58:56.477Z,-2.18
2022-12-18T15:03:59.977Z,-2.02
2022-12-18T15:09:21.537Z,-2.14
2022-12-18T15:14:31.046Z,-2.06
2022-12-18T15:19:41.767Z,-2.02
2022-12-18T15:24:43.827Z,-2.16
2022-12-18T15:30:01.236Z,-2.08
2022-12-18T15:35:25.988Z,-2.09
2022-12-18T15:40:28.016Z,-2.24
2022-12-18T15:45:30.104Z,-2.30
2022-12-18T15:50:32.147Z,-2.32
2022-12-18T15:55:56.534Z,-2.36
2022-12-18T16:01:02.951Z,-2.39
2022-12-18T16:06:05.035Z,-2.40
2022-12-18T16:11:07.177Z,-2.44
2022-12-18T16:16:09.758Z,-2.62
2022-12-18T16:21:12.151Z,-2.57
2022-12-18T16:26:14.239Z,-2.66
2022-12-18T16:31:16.229Z,-2.91
2022-12-18T16:36:18.225Z,-2.78
2022-12-18T16:41:32.463Z,-2.93
2022-12-18T16:46:34.599Z,-3.06
2022-12-18T16:51:36.764Z,-3.16
2022-12-18T16:56:39.434Z,-3.28
2022-12-18T17:01:42.009Z,-3.40
2022-12-18T17:06:48.482Z,-3.53
2022-12-18T17:11:50.637Z,-3.74
2022-12-18T17:17:19.713Z,-3.90
2022-12-18T17:22:15.963Z,-4.22
2022-12-18T17:27:17.999Z,-4.07
2022-12-18T17:32:20.233Z,-4.09
2022-12-18T17:37:22.346Z,-4.09
2022-12-18T17:42:24.327Z,-4.05
2022-12-18T17:47:26.331Z,-4.17
2022-12-18T17:52:28.527Z,-4.30
2022-12-18T17:57:30.590Z,-4.47
2022-12-18T18:02:32.846Z,-4.69
2022-12-18T18:07:35.864Z,-4.89
2022-12-18T18:12:56.659Z,-4.95
2022-12-18T18:18:00.658Z,-5.04
2022-12-18T18:23:02.639Z,-5.18
2022-12-18T18:28:04.961Z,-4.81
2022-12-18T18:33:11.864Z,-4.83
2022-12-18T18:38:14.225Z,-4.90
2022-12-18T18:43:16.207Z,-5.21
2022-12-18T18:48:18.198Z,-5.55
2022-12-18T18:53:20.217Z,-5.48
2022-12-18T18:58:22.283Z,-5.66
2022-12-18T19:03:25.424Z,-5.83
2022-12-18T19:08:30.603Z,-5.81
2022-12-18T19:13:34.218Z,-5.85
2022-12-18T19:18:38.433Z,-5.88
2022-12-18T19:23:41.343Z,-5.84
2022-12-18T19:28:44.684Z,-5.92
2022-12-18T19:33:48.264Z,-5.95
2022-12-18T19:38:51.141Z,-6.02
2022-12-18T19:43:54.699Z,-6.18
2022-12-18T19:49:00.265Z,-6.32
2022-12-18T19:54:03.139Z,-6.26
2022-12-18T19:59:05.481Z,-6.29
2022-12-18T20:04:07.838Z,-6.37
2022-12-18T20:09:11.042Z,-6.56
2022-12-18T20:14:14.672Z,-6.49
2022-12-18T20:19:21.463Z,-6.57
2022-12-18T20:24:23.671Z,-6.63
2022-12-18T20:29:26.315Z,-6.59
2022-12-18T20:34:28.422Z,-6.69
2022-12-18T20:39:30.484Z,-6.79
2022-12-18T20:44:33.614Z,-6.86
2022-12-18T20:49:35.643Z,-6.81
2022-12-18T20:54:39.572Z,-6.75
2022-12-18T20:59:46.316Z,-6.71
2022-12-18T21:04:50.581Z,-6.71
2022-12-18T21:09:52.662Z,-6.71
2022-12-18T21:14:54.872Z,-6.75
2022-12-18T21:19:57.012Z,-6.86
2022-12-18T21:24:59.076Z,-6.88
2022-12-18T21:30:01.191Z,-6.93
2022-12-18T21:35:04.058Z,-6.95
2022-12-18T21:40:06.740Z,-6.98
2022-12-18T21:45:09.123Z,-7.14
2022-12-18T21:50:11.134Z,-7.24
2022-12-18T21:55:13.175Z,-7.41
2022-12-18T22:00:19.232Z,-7.37
2022-12-18T22:05:21.757Z,-7.45
2022-12-18T22:10:23.904Z,-7.47
2022-12-18T22:15:25.928Z,-7.35
2022-12-18T22:20:29.926Z,-7.33
2022-12-18T22:25:32.174Z,-7.28
2022-12-18T22:30:36.390Z,-7.30
2022-12-18T22:35:38.384Z,-7.42
2022-12-18T22:40:40.685Z,-7.31
2022-12-18T22:45:47.305Z,-7.31
2022-12-18T22:50:51.124Z,-7.35
2022-12-18T22:56:02.050Z,-7.15
2022-12-18T23:01:05.080Z,-7.08
2022-12-18T23:06:09.330Z,-7.02
2022-12-18T23:11:12.516Z,-6.99
2022-12-18T23:16:17.080Z,-6.90
2022-12-18T23:21:20.714Z,-6.87
2022-12-18T23:26:25.250Z,-6.86
2022-12-18T23:31:30.286Z,-6.77
2022-12-18T23:36:35.877Z,-6.71
2022-12-18T23:41:48.064Z,-6.67
2022-12-18T23:46:50.182Z,-6.65
2022-12-18T23:51:54.975Z,-6.57
2022-12-18T23:56:56.981Z,-6.59
